createdAt,value
2023-04-17T00:01:17.055Z,2.92
2023-04-17T00:03:44.989Z,2.30
2023-04-17T00:06:14.214Z,2.45
2023-04-17T00:08:43.559Z,2.50
2023-04-17T00:11:11.378Z,2.50
2023-04-17T00:13:38.833Z,2.22
2023-04-17T00:16:07.048Z,2.20
2023-04-17T00:18:34.853Z,2.47
2023-04-17T00:21:02.358Z,2.50
2023-04-17T00:23:29.825Z,3.28
2023-04-17T00:25:57.794Z,2.30
2023-04-17T00:28:25.357Z,2.33
2023-04-17T00:30:52.995Z,2.45
2023-04-17T00:33:20.818Z,2.22
2023-04-17T00:35:48.672Z,2.30
2023-04-17T00:38:16.193Z,2.10
2023-04-17T00:40:45.555Z,2.30
2023-04-17T00:43:13.226Z,2.20
2023-04-17T00:45:41.797Z,2.55
2023-04-17T00:48:10.952Z,2.50
2023-04-17T00:50:38.669Z,2.08
2023-04-17T00:53:06.972Z,2.70
2023-04-17T00:55:35.961Z,2.33
2023-04-17T00:58:03.895Z,2.15
2023-04-17T01:00:31.398Z,2.50
2023-04-17T01:02:59.390Z,2.33
2023-04-17T01:05:27.954Z,1.97
2023-04-17T01:07:57.522Z,2.30
2023-04-17T01:10:25.356Z,2.22
2023-04-17T01:13:04.006Z,2.45
2023-04-17T01:15:33.028Z,2.55
2023-04-17T01:18:01.090Z,2.53
2023-04-17T01:20:31.143Z,2.15
2023-04-17T01:22:59.934Z,2.95
2023-04-17T01:25:28.680Z,2.80
2023-04-17T01:27:57.023Z,2.37
2023-04-17T01:30:25.428Z,3.20
2023-04-17T01:32:55.921Z,2.67
2023-04-17T01:35:23.467Z,2.40
2023-04-17T01:37:51.286Z,2.67
2023-04-17T01:40:18.963Z,2.15
2023-04-17T01:42:46.525Z,2.37
2023-04-17T01:45:14.312Z,2.30
2023-04-17T01:47:41.885Z,2.72
2023-04-17T01:50:09.920Z,2.67
2023-04-17T01:52:39.889Z,2.90
2023-04-17T01:55:07.615Z,2.80
2023-04-17T01:57:35.108Z,2.80
2023-04-17T02:00:07.216Z,2.60
2023-04-17T02:02:40.122Z,2.67
2023-04-17T02:05:08.191Z,3.03
2023-04-17T02:07:37.357Z,2.40
2023-04-17T02:10:05.255Z,2.97
2023-04-17T02:12:33.129Z,2.67
2023-04-17T02:15:01.413Z,2.60
2023-04-17T02:17:28.979Z,2.40
2023-04-17T02:19:57.180Z,2.33
2023-04-17T02:22:24.745Z,2.62
2023-04-17T02:24:52.260Z,2.62
2023-04-17T02:27:20.548Z,2.70
2023-04-17T02:29:48.056Z,2.72
2023-04-17T02:32:17.275Z,2.70
2023-04-17T02:34:45.408Z,2.72
2023-04-17T02:37:13.482Z,2.45
2023-04-17T02:39:41.683Z,2.60
2023-04-17T02:42:10.256Z,2.60
2023-04-17T02:44:37.791Z,2.50
2023-04-17T02:47:05.897Z,2.17
2023-04-17T02:49:33.743Z,2.33
2023-04-17T02:52:01.249Z,2.35
2023-04-17T02:54:28.874Z,2.28
2023-04-17T02:56:59.557Z,2.10
2023-04-17T02:59:27.342Z,2.80
2023-04-17T03:01:55.206Z,2.50
2023-04-17T03:04:23.196Z,2.03
2023-04-17T03:06:51.672Z,2.05
2023-04-17T03:09:22.295Z,2.73
2023-04-17T03:11:51.902Z,2.40
2023-04-17T03:14:19.444Z,2.33
2023-04-17T03:16:47.035Z,2.00
2023-04-17T03:19:14.845Z,2.78
2023-04-17T03:21:42.405Z,2.43
2023-04-17T03:24:12.806Z,1.98
2023-04-17T03:26:40.711Z,2.62
2023-04-17T03:29:08.843Z,2.70
2023-04-17T03:31:36.406Z,2.50
2023-04-17T03:34:04.301Z,2.60
2023-04-17T03:36:32.450Z,2.53
2023-04-17T03:38:59.996Z,2.92
2023-04-17T03:41:27.946Z,2.40
2023-04-17T03:43:55.641Z,2.83
2023-04-17T03:46:23.232Z,2.90
2023-04-17T03:48:51.221Z,2.60
2023-04-17T03:51:18.866Z,2.53
2023-04-17T03:53:47.879Z,2.70
2023-04-17T03:56:15.808Z,2.90
2023-04-17T03:58:43.696Z,2.77
2023-04-17T04:01:12.637Z,3.03
2023-04-17T04:03:41.418Z,3.00
2023-04-17T04:06:09.062Z,2.28
2023-04-17T04:08:36.577Z,3.10
2023-04-17T04:11:04.397Z,2.30
2023-04-17T04:13:33.974Z,2.90
2023-04-17T04:16:01.823Z,3.15
2023-04-17T04:18:30.032Z,2.90
2023-04-17T04:20:58.016Z,2.78
2023-04-17T04:23:27.986Z,2.70
2023-04-17T04:26:01.948Z,2.90
2023-04-17T04:28:31.521Z,3.10
2023-04-17T04:31:02.801Z,2.97
2023-04-17T04:33:31.093Z,3.42
2023-04-17T04:36:01.395Z,2.80
2023-04-17T04:38:33.211Z,3.05
2023-04-17T04:41:06.472Z,2.58
2023-04-17T04:43:34.730Z,2.85
2023-04-17T04:46:03.877Z,3.12
2023-04-17T04:48:31.710Z,2.90
2023-04-17T04:50:59.286Z,3.05
2023-04-17T04:53:27.205Z,3.12
2023-04-17T04:55:59.919Z,2.90
2023-04-17T04:58:29.717Z,2.78
2023-04-17T05:00:59.216Z,2.80
2023-04-17T05:03:28.747Z,3.30
2023-04-17T05:05:56.754Z,3.22
2023-04-17T05:08:24.466Z,3.22
2023-04-17T05:10:53.641Z,2.60
2023-04-17T05:13:21.144Z,2.13
2023-04-17T05:15:49.040Z,2.20
2023-04-17T05:18:19.395Z,2.30
2023-04-17T05:20:47.055Z,2.45
2023-04-17T05:23:14.683Z,2.45
2023-04-17T05:25:42.667Z,2.47
2023-04-17T05:28:10.480Z,1.85
2023-04-17T05:30:38.112Z,2.35
2023-04-17T05:33:06.676Z,2.12
2023-04-17T05:35:35.712Z,2.30
2023-04-17T05:38:04.127Z,2.17
2023-04-17T05:40:34.020Z,2.47
2023-04-17T05:43:12.130Z,3.28
2023-04-17T05:45:41.593Z,2.37
2023-04-17T05:48:09.366Z,2.30
2023-04-17T05:50:39.923Z,1.70
2023-04-17T05:53:08.181Z,2.08
2023-04-17T05:55:36.025Z,2.50
2023-04-17T05:58:20.449Z,2.30
2023-04-17T06:00:51.833Z,2.40
2023-04-17T06:03:21.036Z,2.70
2023-04-17T06:05:49.177Z,2.50
2023-04-17T06:08:17.320Z,2.00
2023-04-17T06:10:46.013Z,2.45
2023-04-17T06:13:13.567Z,1.98
2023-04-17T06:15:43.617Z,1.80
2023-04-17T06:18:11.502Z,2.45
2023-04-17T06:20:41.047Z,2.28
2023-04-17T06:23:08.533Z,2.03
2023-04-17T06:25:36.341Z,2.03
2023-04-17T06:28:04.002Z,2.10
2023-04-17T06:30:31.552Z,1.75
2023-04-17T06:32:59.403Z,1.90
2023-04-17T06:35:26.995Z,2.67
2023-04-17T06:37:55.120Z,2.10
2023-04-17T06:40:23.088Z,1.80
2023-04-17T06:42:51.363Z,1.80
2023-04-17T06:45:21.351Z,2.28
2023-04-17T06:47:49.183Z,2.53
2023-04-17T06:50:17.080Z,2.33
2023-04-17T06:52:44.690Z,1.80
2023-04-17T06:55:12.549Z,2.00
2023-04-17T06:57:40.056Z,2.12
2023-04-17T07:00:08.167Z,2.30
2023-04-17T07:02:36.353Z,2.37
2023-04-17T07:05:07.071Z,2.47
2023-04-17T07:07:36.020Z,2.35
2023-04-17T07:10:04.702Z,2.10
2023-04-17T07:12:33.027Z,1.75
2023-04-17T07:15:00.487Z,2.00
2023-04-17T07:17:28.290Z,2.20
2023-04-17T07:19:55.805Z,2.12
2023-04-17T07:22:24.839Z,1.73
2023-04-17T07:24:53.700Z,2.12
2023-04-17T07:27:21.895Z,2.12
2023-04-17T07:29:54.727Z,2.73
2023-04-17T07:32:24.380Z,3.92
2023-04-17T07:34:52.135Z,3.10
2023-04-17T07:37:19.980Z,2.47
2023-04-17T07:39:50.849Z,2.72
2023-04-17T07:42:18.332Z,2.30
2023-04-17T07:44:47.211Z,2.67
2023-04-17T07:47:15.142Z,2.62
2023-04-17T07:49:46.554Z,2.40
2023-04-17T07:52:15.303Z,2.40
2023-04-17T07:54:43.109Z,2.40
2023-04-17T07:57:11.238Z,2.50
2023-04-17T07:59:38.777Z,2.30
2023-04-17T08:02:07.593Z,2.30
2023-04-17T08:04:35.820Z,2.67
2023-04-17T08:07:03.737Z,2.67
2023-04-17T08:09:31.668Z,2.40
2023-04-17T08:11:59.489Z,2.03
2023-04-17T08:14:27.096Z,2.83
2023-04-17T08:16:55.125Z,2.65
2023-04-17T08:19:23.190Z,2.63
2023-04-17T08:21:51.062Z,2.47
2023-04-17T08:24:19.923Z,2.78
2023-04-17T08:26:48.029Z,2.53
2023-04-17T08:29:15.895Z,2.67
2023-04-17T08:31:43.845Z,2.53
2023-04-17T08:34:14.960Z,2.80
2023-04-17T08:36:43.357Z,2.10
2023-04-17T08:39:12.416Z,2.70
2023-04-17T08:41:47.992Z,2.47
2023-04-17T08:44:19.415Z,2.57
2023-04-17T08:46:47.741Z,3.22
2023-04-17T08:49:15.592Z,2.78
2023-04-17T08:51:43.400Z,3.03
2023-04-17T08:54:10.988Z,3.22
2023-04-17T08:56:38.635Z,2.57
2023-04-17T08:59:06.601Z,3.50
2023-04-17T09:01:34.972Z,3.10
2023-04-17T09:04:02.707Z,2.97
2023-04-17T09:06:50.191Z,2.85
2023-04-17T09:09:17.872Z,2.50
2023-04-17T09:11:45.707Z,2.85
2023-04-17T09:14:31.830Z,2.67
2023-04-17T09:16:59.816Z,2.87
2023-04-17T09:19:27.377Z,2.90
2023-04-17T09:21:55.052Z,2.87
2023-04-17T09:24:36.524Z,2.70
2023-04-17T09:27:23.608Z,2.47
2023-04-17T09:30:04.745Z,2.75
2023-04-17T09:32:33.517Z,2.62
2023-04-17T09:35:03.765Z,3.20
2023-04-17T09:37:56.251Z,2.92
2023-04-17T09:40:25.363Z,2.97
2023-04-17T09:43:04.144Z,3.20
2023-04-17T09:45:36.912Z,3.20
2023-04-17T09:48:12.179Z,3.33
2023-04-17T09:50:40.342Z,3.37
2023-04-17T09:53:08.667Z,2.90
2023-04-17T09:55:38.185Z,2.72
2023-04-17T09:58:08.000Z,3.12
2023-04-17T10:00:36.941Z,2.37
2023-04-17T10:03:04.969Z,3.22
2023-04-17T10:05:32.877Z,3.30
2023-04-17T10:08:00.892Z,3.10
2023-04-17T10:10:32.368Z,3.03
2023-04-17T10:13:03.906Z,3.33
2023-04-17T10:15:33.275Z,3.47
2023-04-17T10:18:24.024Z,3.12
2023-04-17T10:20:54.102Z,3.17
2023-04-17T10:23:29.905Z,3.22
2023-04-17T10:26:25.798Z,3.30
2023-04-17T10:28:54.883Z,3.20
2023-04-17T10:31:25.581Z,3.53
2023-04-17T10:33:54.519Z,3.50
2023-04-17T10:36:40.355Z,4.07
2023-04-17T10:39:20.897Z,3.43
2023-04-17T10:42:06.786Z,3.30
2023-04-17T10:44:41.304Z,3.55
2023-04-17T10:47:18.586Z,3.53
2023-04-17T10:49:47.233Z,3.72
2023-04-17T10:52:33.333Z,3.33
2023-04-17T10:55:10.111Z,3.35
2023-04-17T10:58:01.213Z,3.15
2023-04-17T11:00:38.514Z,3.55
2023-04-17T11:03:07.131Z,3.20
2023-04-17T11:05:36.016Z,3.10
2023-04-17T11:08:03.777Z,3.28
2023-04-17T11:10:36.415Z,3.10
2023-04-17T11:13:04.545Z,3.12
2023-04-17T11:15:36.959Z,3.17
2023-04-17T11:18:04.995Z,3.40
2023-04-17T11:20:36.327Z,2.60
2023-04-17T11:23:06.233Z,3.12
2023-04-17T11:25:34.887Z,3.30
2023-04-17T11:28:06.060Z,3.10
2023-04-17T11:30:42.300Z,3.13
2023-04-17T11:33:11.020Z,4.05
2023-04-17T11:35:41.218Z,3.92
2023-04-17T11:38:20.991Z,4.87
2023-04-17T11:40:52.297Z,3.80
2023-04-17T11:43:21.566Z,3.13
2023-04-17T11:45:54.295Z,3.47
2023-04-17T11:48:24.831Z,3.33
2023-04-17T11:51:02.072Z,3.80
2023-04-17T11:53:31.005Z,3.62
2023-04-17T11:56:16.288Z,3.10
2023-04-17T11:58:58.138Z,2.78
2023-04-17T12:01:28.178Z,3.03
2023-04-17T12:03:58.794Z,3.05
2023-04-17T12:06:38.861Z,2.70
2023-04-17T12:09:07.353Z,3.10
2023-04-17T12:11:35.959Z,3.03
2023-04-17T12:14:05.498Z,2.30
2023-04-17T12:16:33.347Z,3.25
2023-04-17T12:19:01.051Z,2.90
2023-04-17T12:21:28.682Z,3.20
2023-04-17T12:23:56.533Z,3.10
2023-04-17T12:26:25.312Z,2.03
2023-04-17T12:28:52.868Z,2.58
2023-04-17T12:31:20.740Z,2.15
2023-04-17T12:33:48.328Z,1.90
2023-04-17T12:36:15.969Z,1.62
2023-04-17T12:38:43.881Z,2.20
2023-04-17T12:41:11.366Z,1.85
2023-04-17T12:43:38.893Z,2.08
2023-04-17T12:46:06.918Z,2.60
2023-04-17T12:48:34.614Z,2.12
2023-04-17T12:51:03.655Z,2.25
2023-04-17T12:53:34.350Z,2.47
2023-04-17T12:56:02.174Z,2.17
2023-04-17T12:58:29.977Z,1.63
2023-04-17T13:00:57.753Z,1.83
2023-04-17T13:03:25.401Z,1.95
2023-04-17T13:05:53.452Z,1.90
2023-04-17T13:08:21.462Z,2.10
2023-04-17T13:10:48.938Z,2.00
2023-04-17T13:13:16.635Z,2.10
2023-04-17T13:15:47.569Z,2.03
2023-04-17T13:18:15.786Z,2.47
2023-04-17T13:20:43.272Z,2.30
2023-04-17T13:23:12.012Z,2.40
2023-04-17T13:25:39.581Z,2.40
2023-04-17T13:28:07.220Z,1.95
2023-04-17T13:30:37.014Z,1.90
2023-04-17T13:33:05.278Z,2.00
2023-04-17T13:35:32.929Z,2.30
2023-04-17T13:38:03.130Z,1.52
2023-04-17T13:40:31.353Z,2.55
2023-04-17T13:42:58.900Z,2.90
2023-04-17T13:45:26.753Z,2.67
2023-04-17T13:47:54.377Z,2.80
2023-04-17T13:50:21.940Z,2.65
2023-04-17T13:52:49.730Z,2.42
2023-04-17T13:55:17.554Z,2.78
2023-04-17T13:57:45.080Z,2.55
2023-04-17T14:00:13.709Z,3.03
2023-04-17T14:02:42.752Z,3.22
2023-04-17T14:05:10.451Z,2.45
2023-04-17T14:07:38.163Z,2.62
2023-04-17T14:10:07.114Z,2.05
2023-04-17T14:12:34.604Z,1.87
2023-04-17T14:15:02.349Z,2.72
2023-04-17T14:17:30.444Z,2.30
2023-04-17T14:19:57.955Z,2.83
2023-04-17T14:22:25.460Z,2.50
2023-04-17T14:24:53.213Z,2.50
2023-04-17T14:27:20.964Z,2.10
2023-04-17T14:29:48.444Z,2.20
2023-04-17T14:32:16.243Z,2.25
2023-04-17T14:34:43.732Z,1.92
2023-04-17T14:37:11.273Z,2.67
2023-04-17T14:39:39.213Z,2.20
2023-04-17T14:42:06.712Z,2.50
2023-04-17T14:44:34.172Z,2.25
2023-04-17T14:47:02.452Z,2.50
2023-04-17T14:49:30.359Z,2.37
2023-04-17T14:51:57.863Z,2.15
2023-04-17T14:54:25.763Z,2.12
2023-04-17T14:56:53.422Z,2.00
2023-04-17T14:59:20.933Z,2.58
2023-04-17T15:01:48.880Z,2.17
2023-04-17T15:04:16.526Z,2.28
2023-04-17T15:06:44.155Z,2.17
2023-04-17T15:09:12.468Z,2.10
2023-04-17T15:11:40.519Z,2.15
2023-04-17T15:14:08.059Z,1.93
2023-04-17T15:16:35.919Z,2.03
2023-04-17T15:19:03.471Z,2.78
2023-04-17T15:21:31.279Z,2.47
2023-04-17T15:23:59.059Z,1.70
2023-04-17T15:26:27.448Z,2.20
2023-04-17T15:28:54.979Z,2.28
2023-04-17T15:31:22.928Z,2.17
2023-04-17T15:33:50.523Z,2.45
2023-04-17T15:36:18.093Z,2.62
2023-04-17T15:38:45.926Z,2.30
2023-04-17T15:41:13.872Z,2.42
2023-04-17T15:43:41.376Z,2.75
2023-04-17T15:46:09.213Z,2.30
2023-04-17T15:48:37.060Z,2.20
2023-04-17T15:51:04.890Z,2.30
2023-04-17T15:53:33.048Z,2.22
2023-04-17T15:56:00.789Z,2.00
2023-04-17T15:58:28.370Z,2.00
2023-04-17T16:00:56.465Z,2.22
2023-04-17T16:03:24.349Z,2.10
2023-04-17T16:05:53.967Z,1.70
2023-04-17T16:08:21.650Z,1.80
2023-04-17T16:10:49.452Z,2.08
2023-04-17T16:13:17.022Z,2.20
2023-04-17T16:15:45.086Z,2.83
2023-04-17T16:18:13.054Z,2.53
2023-04-17T16:20:40.618Z,2.00
2023-04-17T16:23:08.139Z,2.47
2023-04-17T16:25:36.069Z,2.30
2023-04-17T16:28:03.656Z,1.67
2023-04-17T16:30:31.280Z,1.90
2023-04-17T16:32:59.179Z,2.03
2023-04-17T16:35:26.852Z,2.00
2023-04-17T16:37:54.401Z,2.00
2023-04-17T16:40:22.295Z,1.80
2023-04-17T16:42:49.830Z,2.30
2023-04-17T16:45:17.474Z,2.15
2023-04-17T16:47:45.340Z,1.60
2023-04-17T16:50:12.927Z,2.40
2023-04-17T16:52:43.376Z,1.93
2023-04-17T16:55:11.236Z,2.20
2023-04-17T16:57:40.676Z,2.12
2023-04-17T17:00:10.112Z,1.95
2023-04-17T17:02:38.034Z,2.15
2023-04-17T17:05:07.675Z,2.40
2023-04-17T17:07:35.240Z,1.90
2023-04-17T17:10:03.478Z,2.35
2023-04-17T17:12:31.155Z,2.00
2023-04-17T17:14:59.521Z,1.98
2023-04-17T17:17:27.342Z,1.87
2023-04-17T17:19:54.828Z,2.20
2023-04-17T17:22:22.308Z,1.90
2023-04-17T17:24:50.121Z,2.30
2023-04-17T17:27:17.609Z,2.03
2023-04-17T17:29:45.059Z,1.70
2023-04-17T17:32:16.922Z,2.70
2023-04-17T17:34:44.493Z,2.40
2023-04-17T17:37:12.062Z,2.50
2023-04-17T17:39:39.884Z,2.67
2023-04-17T17:42:09.465Z,2.80
2023-04-17T17:44:37.850Z,2.50
2023-04-17T17:47:07.762Z,2.97
2023-04-17T17:49:35.675Z,2.97
2023-04-17T17:52:03.190Z,2.58
2023-04-17T17:54:36.149Z,2.27
2023-04-17T17:57:05.155Z,2.58
2023-04-17T17:59:33.050Z,2.60
2023-04-17T18:02:01.988Z,2.10
2023-04-17T18:04:30.357Z,1.85
2023-04-17T18:06:57.952Z,2.33
2023-04-17T18:09:25.441Z,2.35
2023-04-17T18:11:53.291Z,2.30
2023-04-17T18:14:20.852Z,2.80
2023-04-17T18:16:48.642Z,3.30
2023-04-17T18:19:16.520Z,3.20
2023-04-17T18:21:45.473Z,3.12
2023-04-17T18:24:14.889Z,3.35
2023-04-17T18:26:42.750Z,2.53
2023-04-17T18:29:10.625Z,2.55
2023-04-17T18:31:38.256Z,2.83
2023-04-17T18:34:06.083Z,3.20
2023-04-17T18:36:33.605Z,3.53
2023-04-17T18:39:01.081Z,3.40
2023-04-17T18:41:29.095Z,3.22
2023-04-17T18:43:56.630Z,3.00
2023-04-17T18:46:26.302Z,3.15
2023-04-17T18:48:54.226Z,3.72
2023-04-17T18:51:21.830Z,3.67
2023-04-17T18:53:50.315Z,3.92
2023-04-17T18:56:18.146Z,3.60
2023-04-17T18:58:45.809Z,3.83
2023-04-17T19:01:13.424Z,3.53
2023-04-17T19:03:41.326Z,3.90
2023-04-17T19:06:08.942Z,3.65
2023-04-17T19:08:36.661Z,3.80
2023-04-17T19:11:04.544Z,3.65
2023-04-17T19:13:32.434Z,3.65
2023-04-17T19:16:00.006Z,4.03
2023-04-17T19:18:29.236Z,4.00
2023-04-17T19:20:56.738Z,2.97
2023-04-17T19:23:24.212Z,2.87
2023-04-17T19:25:56.476Z,2.90
2023-04-17T19:28:27.210Z,2.55
2023-04-17T19:30:56.234Z,2.70
2023-04-17T19:33:24.293Z,2.17
2023-04-17T19:35:52.474Z,2.95
2023-04-17T19:38:20.473Z,2.08
2023-04-17T19:41:17.932Z,3.40
2023-04-17T19:43:47.115Z,2.78
2023-04-17T19:46:14.852Z,2.40
2023-04-17T19:48:44.678Z,2.60
2023-04-17T19:51:14.504Z,2.83
2023-04-17T19:53:43.532Z,3.10
2023-04-17T19:56:11.313Z,2.97
2023-04-17T19:58:40.672Z,3.40
2023-04-17T20:01:08.340Z,3.15
2023-04-17T20:03:38.435Z,3.28
2023-04-17T20:06:06.246Z,3.50
2023-04-17T20:08:34.006Z,3.78
2023-04-17T20:11:01.777Z,3.83
2023-04-17T20:13:29.257Z,3.40
2023-04-17T20:15:56.783Z,3.22
2023-04-17T20:18:25.041Z,3.50
2023-04-17T20:20:52.459Z,3.65
2023-04-17T20:23:20.125Z,3.67
2023-04-17T20:25:47.955Z,3.37
2023-04-17T20:28:15.383Z,3.03
2023-04-17T20:30:42.869Z,3.55
2023-04-17T20:33:10.871Z,3.72
2023-04-17T20:35:38.581Z,3.67
2023-04-17T20:38:06.058Z,4.00
2023-04-17T20:40:34.113Z,3.87
2023-04-17T20:43:01.625Z,4.35
2023-04-17T20:45:29.077Z,3.75
2023-04-17T20:47:57.463Z,3.53
2023-04-17T20:50:25.197Z,3.22
2023-04-17T20:52:52.881Z,3.85
2023-04-17T20:55:20.920Z,3.30
2023-04-17T20:57:48.482Z,3.58
2023-04-17T21:00:16.374Z,3.73
2023-04-17T21:02:44.801Z,4.25
2023-04-17T21:05:12.455Z,3.50
2023-04-17T21:07:40.004Z,3.70
2023-04-17T21:10:08.498Z,4.47
2023-04-17T21:12:36.037Z,3.10
2023-04-17T21:15:03.758Z,3.60
2023-04-17T21:17:31.638Z,3.60
2023-04-17T21:19:59.197Z,2.95
2023-04-17T21:22:26.664Z,3.40
2023-04-17T21:24:54.466Z,3.00
2023-04-17T21:27:22.711Z,3.35
2023-04-17T21:29:50.186Z,3.08
2023-04-17T21:32:17.936Z,3.72
2023-04-17T21:34:45.548Z,3.42
2023-04-17T21:37:13.012Z,3.60
2023-04-17T21:39:40.826Z,3.33
2023-04-17T21:42:09.829Z,3.58
2023-04-17T21:44:37.371Z,3.80
2023-04-17T21:47:05.213Z,3.30
2023-04-17T21:49:32.711Z,3.27
2023-04-17T21:52:00.282Z,2.95
2023-04-17T21:54:28.123Z,3.37
2023-04-17T21:56:55.794Z,3.33
2023-04-17T21:59:24.397Z,3.10
2023-04-17T22:01:52.255Z,2.77
2023-04-17T22:04:20.118Z,3.03
2023-04-17T22:06:47.858Z,3.05
2023-04-17T22:09:16.160Z,3.60
2023-04-17T22:11:43.928Z,3.20
2023-04-17T22:14:12.353Z,3.33
2023-04-17T22:16:40.124Z,2.60
2023-04-17T22:19:08.049Z,3.00
2023-04-17T22:21:35.703Z,3.08
2023-04-17T22:24:03.277Z,2.83
2023-04-17T22:26:31.668Z,2.20
2023-04-17T22:28:59.117Z,2.47
2023-04-17T22:31:26.624Z,2.22
2023-04-17T22:33:54.385Z,2.70
2023-04-17T22:36:21.898Z,2.20
2023-04-17T22:38:49.504Z,2.53
2023-04-17T22:41:17.404Z,2.33
2023-04-17T22:43:49.037Z,2.60
2023-04-17T22:46:16.869Z,2.40
2023-04-17T22:48:47.498Z,2.40
2023-04-17T22:51:15.220Z,2.60
2023-04-17T22:53:43.007Z,2.85
2023-04-17T22:56:12.942Z,2.60
2023-04-17T22:58:40.506Z,2.97
2023-04-17T23:01:08.372Z,2.97
2023-04-17T23:03:36.022Z,3.13
2023-04-17T23:06:03.930Z,3.22
2023-04-17T23:08:31.734Z,2.90
2023-04-17T23:11:01.101Z,3.60
2023-04-17T23:13:29.402Z,3.47
2023-04-17T23:15:57.752Z,3.47
2023-04-17T23:18:25.228Z,4.00
2023-04-17T23:20:52.701Z,4.22
2023-04-17T23:23:20.716Z,4.07
2023-04-17T23:25:48.552Z,4.45
2023-04-17T23:28:16.207Z,3.60
2023-04-17T23:30:44.017Z,4.25
2023-04-17T23:33:11.523Z,4.93
2023-04-17T23:35:39.041Z,4.65
2023-04-17T23:38:06.873Z,4.85
2023-04-17T23:40:34.839Z,4.53
2023-04-17T23:43:02.504Z,4.60
2023-04-17T23:45:30.417Z,4.25
2023-04-17T23:47:58.038Z,4.35
2023-04-17T23:50:26.052Z,3.92
2023-04-17T23:52:55.035Z,4.00
2023-04-17T23:55:23.349Z,3.87
2023-04-17T23:57:50.900Z,3.40
